createdAt,value
2018-11-28T00:01:10.056Z,99920.33
2018-11-28T00:03:40.299Z,99917.63
2018-11-28T00:06:09.882Z,99922.72
2018-11-28T00:08:39.366Z,99918.86
2018-11-28T00:11:09.038Z,99925.42
2018-11-28T00:13:40.071Z,99934.44
2018-11-28T00:16:09.592Z,99927.61
2018-11-28T00:18:40.003Z,99930.40
2018-11-28T00:21:09.603Z,99925.53
2018-11-28T00:23:39.264Z,99929.05
2018-11-28T00:26:09.045Z,99930.05
2018-11-28T00:28:38.851Z,99938.41
2018-11-28T00:31:11.336Z,99940.74
2018-11-28T00:33:40.983Z,99937.48
2018-11-28T00:36:10.586Z,99940.64
2018-11-28T00:38:40.256Z,99937.88
2018-11-28T00:41:22.667Z,99936.01
2018-11-28T00:43:52.390Z,99931.13
2018-11-28T00:46:23.888Z,99929.48
2018-11-28T00:48:54.186Z,99936.31
2018-11-28T00:51:23.957Z,99942.04
2018-11-28T00:53:54.499Z,99941.56
2018-11-28T00:56:25.846Z,99947.34
2018-11-28T00:58:56.765Z,99944.52
2018-11-28T01:01:27.638Z,99943.34
2018-11-28T01:03:57.558Z,99942.19
2018-11-28T01:06:27.954Z,99938.27
2018-11-28T01:08:58.181Z,99938.91
2018-11-28T01:11:27.864Z,99937.61
2018-11-28T01:13:58.389Z,99948.63
2018-11-28T01:16:29.447Z,99942.02
2018-11-28T01:18:59.585Z,99940.56
2018-11-28T01:21:29.784Z,99943.83
2018-11-28T01:24:00.323Z,99949.13
2018-11-28T01:26:29.929Z,99942.91
2018-11-28T01:28:59.565Z,99944.69
2018-11-28T01:31:29.163Z,99944.84
2018-11-28T01:33:58.863Z,99948.25
2018-11-28T01:36:28.454Z,99941.09
2018-11-28T01:38:59.205Z,99942.19
2018-11-28T01:41:28.872Z,99944.15
2018-11-28T01:44:00.198Z,99948.80
2018-11-28T01:46:31.052Z,99948.27
2018-11-28T01:49:02.032Z,99939.48
2018-11-28T01:51:31.659Z,99941.65
2018-11-28T01:54:02.061Z,99945.68
2018-11-28T01:56:34.881Z,99947.16
2018-11-28T01:59:04.438Z,99950.31
2018-11-28T02:01:35.370Z,99950.98
2018-11-28T02:05:29.540Z,99954.06
2018-11-28T02:07:59.089Z,99952.98
2018-11-28T02:10:28.783Z,99958.41
2018-11-28T02:12:58.609Z,99954.81
2018-11-28T02:15:28.804Z,99958.31
2018-11-28T02:17:58.878Z,99963.44
2018-11-28T02:20:28.617Z,99962.04
2018-11-28T02:23:01.951Z,99960.33
2018-11-28T02:25:31.957Z,99967.76
2018-11-28T02:28:02.298Z,99962.34
2018-11-28T02:30:34.557Z,99954.61
2018-11-28T02:33:04.799Z,99961.80
2018-11-28T02:35:34.694Z,99953.41
2018-11-28T02:38:04.244Z,99964.69
2018-11-28T02:40:33.809Z,99971.09
2018-11-28T02:43:05.659Z,99972.34
2018-11-28T02:45:49.143Z,99965.27
2018-11-28T02:48:18.804Z,99969.53
2018-11-28T02:50:48.506Z,99971.16
2018-11-28T02:53:19.446Z,99975.05
2018-11-28T02:55:49.297Z,99981.83
2018-11-28T02:58:18.991Z,99985.89
2018-11-28T03:00:48.636Z,99979.23
2018-11-28T03:03:19.797Z,99984.09
2018-11-28T03:05:50.387Z,99990.24
2018-11-28T03:08:21.070Z,99992.84
2018-11-28T03:10:51.755Z,99990.61
2018-11-28T03:13:22.051Z,99989.16
2018-11-28T03:15:54.903Z,99987.75
2018-11-28T03:18:25.463Z,99983.03
2018-11-28T03:20:56.571Z,99993.41
2018-11-28T03:23:28.062Z,100004.28
2018-11-28T03:26:09.996Z,99999.80
2018-11-28T03:28:39.849Z,100006.78
2018-11-28T03:31:10.309Z,100005.30
2018-11-28T03:33:42.980Z,99985.87
2018-11-28T03:36:14.434Z,100008.22
2018-11-28T03:38:44.896Z,100006.72
2018-11-28T03:41:14.378Z,100000.73
2018-11-28T03:43:52.080Z,99997.97
2018-11-28T03:46:34.461Z,100004.95
2018-11-28T03:49:03.810Z,100010.63
2018-11-28T03:51:33.237Z,100016.95
2018-11-28T03:54:02.594Z,100015.97
2018-11-28T03:56:32.005Z,100024.43
2018-11-28T03:59:01.531Z,100024.88
2018-11-28T04:01:30.855Z,100018.39
2018-11-28T04:04:18.095Z,100015.02
2018-11-28T04:06:47.770Z,100021.98
2018-11-28T04:09:17.564Z,100026.97
2018-11-28T04:11:46.951Z,100023.72
2018-11-28T04:14:16.399Z,100027.63
2018-11-28T04:16:45.807Z,100034.27
2018-11-28T04:19:15.297Z,100028.89
2018-11-28T04:21:44.815Z,100029.37
2018-11-28T04:24:15.110Z,100033.14
2018-11-28T04:26:44.533Z,100025.36
2018-11-28T04:29:14.300Z,100031.22
2018-11-28T04:31:44.100Z,100040.09
2018-11-28T04:34:13.434Z,100029.39
2018-11-28T04:36:42.965Z,100033.94
2018-11-28T04:39:12.485Z,100044.48
2018-11-28T04:41:41.980Z,100039.60
2018-11-28T04:44:11.480Z,100046.73
2018-11-28T04:46:40.800Z,100048.34
2018-11-28T04:49:10.369Z,100054.52
2018-11-28T04:51:39.745Z,100056.94
2018-11-28T04:54:09.407Z,100050.78
2018-11-28T04:56:39.010Z,100055.36
2018-11-28T04:59:08.417Z,100055.50
2018-11-28T05:01:37.957Z,100050.19
2018-11-28T05:04:07.483Z,100050.80
2018-11-28T05:19:39.580Z,100047.05
2018-11-28T05:22:09.592Z,100057.32
2018-11-28T05:24:39.974Z,100051.16
2018-11-28T05:27:09.416Z,100056.18
2018-11-28T05:29:39.031Z,100063.80
2018-11-28T05:32:09.139Z,100064.59
2018-11-28T05:34:38.576Z,100065.55
2018-11-28T05:37:09.389Z,100069.14
2018-11-28T05:39:38.823Z,100071.40
2018-11-28T05:42:14.868Z,100072.36
2018-11-28T05:44:44.795Z,100068.97
2018-11-28T05:47:14.266Z,100063.78
2018-11-28T05:49:43.725Z,100065.91
2018-11-28T05:52:13.432Z,100065.75
2018-11-28T05:54:43.541Z,100065.89
2018-11-28T05:57:15.057Z,100075.95
2018-11-28T05:59:44.821Z,100075.14
2018-11-28T06:02:14.380Z,100076.62
2018-11-28T06:04:43.905Z,100078.89
2018-11-28T06:07:18.427Z,100077.91
2018-11-28T06:09:47.891Z,100083.89
2018-11-28T06:12:17.233Z,100090.39
2018-11-28T06:14:46.849Z,100087.29
2018-11-28T06:17:17.324Z,100080.19
2018-11-28T06:19:46.784Z,100083.09
2018-11-28T06:22:16.462Z,100086.33
2018-11-28T06:24:45.899Z,100095.08
2018-11-28T06:27:15.168Z,100093.14
2018-11-28T06:29:44.437Z,100093.95
2018-11-28T06:32:13.869Z,100096.06
2018-11-28T06:34:43.370Z,100105.44
2018-11-28T06:37:12.799Z,100110.96
2018-11-28T06:39:42.148Z,100109.35
2018-11-28T06:42:11.619Z,100104.82
2018-11-28T06:44:40.922Z,100113.39
2018-11-28T06:47:11.745Z,100115.83
2018-11-28T06:49:41.400Z,100116.16
2018-11-28T06:52:11.219Z,100121.33
2018-11-28T06:54:40.784Z,100121.97
2018-11-28T06:57:10.331Z,100125.53
2018-11-28T06:59:40.166Z,100133.16
2018-11-28T07:02:09.553Z,100124.41
2018-11-28T07:04:38.943Z,100131.38
2018-11-28T07:07:08.260Z,100135.44
2018-11-28T07:09:38.048Z,100138.52
2018-11-28T07:12:07.490Z,100137.06
2018-11-28T07:14:36.888Z,100127.80
2018-11-28T07:17:07.283Z,100137.04
2018-11-28T07:19:36.642Z,100139.48
2018-11-28T07:22:06.298Z,100141.44
2018-11-28T07:24:35.990Z,100131.54
2018-11-28T07:27:05.947Z,100131.22
2018-11-28T07:29:35.326Z,100130.38
2018-11-28T07:32:09.713Z,100135.76
2018-11-28T07:34:39.379Z,100136.58
2018-11-28T07:37:08.671Z,100135.09
2018-11-28T07:39:38.191Z,100138.82
2018-11-28T07:42:08.552Z,100140.94
2018-11-28T07:44:42.070Z,100142.39
2018-11-28T07:47:11.416Z,100134.89
2018-11-28T07:49:40.675Z,100139.30
2018-11-28T07:52:10.092Z,100136.19
2018-11-28T07:54:39.365Z,100141.05
2018-11-28T07:57:08.732Z,100140.70
2018-11-28T07:59:38.388Z,100146.53
2018-11-28T08:02:08.913Z,100140.02
2018-11-28T08:04:38.414Z,100138.84
2018-11-28T08:07:07.995Z,100143.05
2018-11-28T08:09:37.338Z,100135.70
2018-11-28T08:12:07.868Z,100141.83
2018-11-28T08:17:17.685Z,100140.48
2018-11-28T08:19:47.485Z,100148.71
2018-11-28T08:22:17.258Z,100146.27
2018-11-28T08:24:47.451Z,100144.84
2018-11-28T08:27:17.655Z,100153.84
2018-11-28T08:29:47.609Z,100149.68
2018-11-28T08:32:17.486Z,100153.96
2018-11-28T08:34:47.777Z,100159.95
2018-11-28T08:37:17.678Z,100157.86
2018-11-28T08:39:47.592Z,100159.58
2018-11-28T08:42:17.484Z,100156.59
2018-11-28T08:44:53.368Z,100159.75
2018-11-28T08:47:23.520Z,100157.06
2018-11-28T08:49:53.527Z,100157.36
2018-11-28T08:52:24.043Z,100158.23
2018-11-28T09:18:32.017Z,100160.88
2018-11-28T09:21:02.163Z,100162.52
2018-11-28T09:23:32.284Z,100163.19
2018-11-28T09:26:02.294Z,100164.83
2018-11-28T09:28:32.627Z,100166.39
2018-11-28T09:31:02.820Z,100164.70
2018-11-28T09:33:32.866Z,100163.72
2018-11-28T09:36:06.452Z,100155.91
2018-11-28T09:38:36.322Z,100161.81
2018-11-28T09:41:06.528Z,100153.52
2018-11-28T09:43:37.526Z,100157.07
2018-11-28T09:46:07.967Z,100154.80
2018-11-28T09:48:38.690Z,100144.97
2018-11-28T09:51:09.269Z,100154.56
2018-11-28T09:53:39.141Z,100152.40
2018-11-28T09:56:09.221Z,100142.28
2018-11-28T09:58:39.698Z,100145.98
2018-11-28T10:01:11.252Z,100145.90
2018-11-28T10:03:41.671Z,100158.22
2018-11-28T10:06:14.410Z,100154.21
2018-11-28T10:08:44.455Z,100153.66
2018-11-28T10:11:14.441Z,100154.27
2018-11-28T10:13:45.259Z,100146.64
2018-11-28T10:16:16.709Z,100145.87
2018-11-28T10:18:46.562Z,100143.96
2018-11-28T10:21:16.488Z,100140.56
2018-11-28T10:23:46.449Z,100132.05
2018-11-28T10:26:16.770Z,100131.52
2018-11-28T10:28:46.813Z,100137.41
2018-11-28T10:31:16.869Z,100139.23
2018-11-28T10:33:46.995Z,100133.51
2018-11-28T10:36:20.180Z,100138.15
2018-11-28T10:38:50.459Z,100137.03
2018-11-28T10:41:20.859Z,100142.71
2018-11-28T10:43:50.726Z,100135.81
2018-11-28T10:46:20.644Z,100143.78
2018-11-28T10:48:50.933Z,100135.55
2018-11-28T10:51:21.465Z,100145.00
2018-11-28T10:53:51.530Z,100146.33
2018-11-28T10:56:21.487Z,100139.16
2018-11-28T10:58:51.143Z,100139.55
2018-11-28T11:01:26.468Z,100140.48
2018-11-28T11:04:00.449Z,100132.23
2018-11-28T11:06:35.638Z,100127.92
2018-11-28T11:09:13.121Z,100128.73
2018-11-28T11:11:48.262Z,100121.77
2018-11-28T11:14:23.183Z,100115.18
2018-11-28T11:16:53.779Z,100118.58
2018-11-28T11:19:23.799Z,100117.02
2018-11-28T11:21:54.183Z,100126.89
2018-11-28T11:24:24.300Z,100119.77
2018-11-28T11:26:54.409Z,100125.45
2018-11-28T11:29:25.567Z,100114.41
2018-11-28T11:31:55.988Z,100128.88
2018-11-28T11:34:26.197Z,100120.66
2018-11-28T11:37:08.526Z,100120.08
2018-11-28T11:39:39.028Z,100119.34
2018-11-28T11:42:09.421Z,100122.78
2018-11-28T11:44:40.114Z,100120.77
2018-11-28T11:47:10.215Z,100120.09
2018-11-28T11:49:41.356Z,100108.92
2018-11-28T11:52:11.693Z,100121.44
2018-11-28T11:54:41.827Z,100108.72
2018-11-28T11:57:11.784Z,100106.31
2018-11-28T11:59:42.178Z,100116.24
2018-11-28T12:02:12.402Z,100110.77
2018-11-28T12:04:42.311Z,100115.50
2018-11-28T12:07:12.273Z,100113.09
2018-11-28T12:09:42.425Z,100116.60
2018-11-28T12:12:12.328Z,100115.73
2018-11-28T12:14:42.364Z,100112.90
2018-11-28T12:17:12.595Z,100108.35
2018-11-28T12:19:42.500Z,100111.91
2018-11-28T12:22:12.502Z,100106.39
2018-11-28T12:24:48.336Z,100114.55
2018-11-28T12:27:28.920Z,100110.77
2018-11-28T12:29:59.060Z,100106.81
2018-11-28T12:32:29.388Z,100104.77
2018-11-28T12:34:59.269Z,100102.13
2018-11-28T12:37:30.429Z,100101.99
2018-11-28T12:40:00.387Z,100099.59
2018-11-28T12:42:30.241Z,100101.41
2018-11-28T12:45:00.556Z,100095.32
2018-11-28T12:47:43.347Z,100091.44
2018-11-28T12:50:46.564Z,100091.17
2018-11-28T12:53:41.228Z,100091.73
2018-11-28T12:56:11.677Z,100095.98
2018-11-28T12:58:48.592Z,100091.87
2018-11-28T13:01:30.599Z,100081.20
2018-11-28T13:04:10.847Z,100081.30
2018-11-28T13:06:41.833Z,100085.66
2018-11-28T13:09:13.006Z,100082.64
2018-11-28T13:11:45.465Z,100074.29
2018-11-28T13:14:15.896Z,100081.48
2018-11-28T13:16:46.699Z,100081.51
2018-11-28T13:19:18.856Z,100077.14
2018-11-28T13:21:53.473Z,100080.27
2018-11-28T13:24:23.336Z,100073.20
2018-11-28T13:26:55.887Z,100068.34
2018-11-28T13:29:27.282Z,100066.06
2018-11-28T13:32:05.535Z,100063.20
2018-11-28T13:34:36.008Z,100068.19
2018-11-28T13:37:10.504Z,100067.06
2018-11-28T13:39:42.720Z,100059.05
2018-11-28T13:42:12.404Z,100059.91
2018-11-28T13:44:41.873Z,100070.63
2018-11-28T13:47:12.868Z,100059.74
2018-11-28T13:49:42.232Z,100057.06
2018-11-28T13:52:11.972Z,100063.87
2018-11-28T13:55:36.990Z,100053.15
2018-11-28T13:57:12.438Z,100056.94
2018-11-28T13:59:41.941Z,100058.67
2018-11-28T14:02:12.705Z,100061.70
2018-11-28T14:04:42.902Z,100054.45
2018-11-28T14:07:12.166Z,100057.92
2018-11-28T14:09:41.395Z,100056.47
2018-11-28T14:12:11.997Z,100052.30
2018-11-28T14:14:41.965Z,100064.63
2018-11-28T14:17:12.737Z,100050.95
2018-11-28T14:19:42.229Z,100054.94
2018-11-28T14:22:12.291Z,100057.88
2018-11-28T14:24:43.363Z,100058.02
2018-11-28T14:27:13.754Z,100059.47
2018-11-28T14:29:44.401Z,100071.87
2018-11-28T14:32:13.853Z,100072.23
2018-11-28T14:34:44.222Z,100083.30
2018-11-28T14:37:13.880Z,100075.98
2018-11-28T14:39:48.744Z,100081.20
2018-11-28T14:42:18.954Z,100074.18
2018-11-28T14:44:51.017Z,100074.55
2018-11-28T14:47:22.483Z,100077.83
2018-11-28T14:49:52.670Z,100078.22
2018-11-28T14:52:22.667Z,100082.87
2018-11-28T14:54:52.147Z,100080.66
2018-11-28T14:57:21.598Z,100079.79
2018-11-28T14:59:54.957Z,100087.32
2018-11-28T15:02:24.707Z,100089.27
2018-11-28T15:04:55.234Z,100089.61
2018-11-28T15:07:26.527Z,100082.05
2018-11-28T15:10:01.448Z,100090.20
2018-11-28T15:12:31.532Z,100081.66
2018-11-28T15:15:03.395Z,100078.05
2018-11-28T15:17:33.771Z,100087.29
2018-11-28T15:20:09.922Z,100075.13
2018-11-28T15:22:40.931Z,100071.20
2018-11-28T15:25:12.005Z,100076.01
2018-11-28T15:27:42.902Z,100069.85
2018-11-28T15:30:12.604Z,100077.70
2018-11-28T15:32:42.674Z,100072.50
2018-11-28T15:35:12.186Z,100078.83
2018-11-28T15:37:42.092Z,100075.78
2018-11-28T15:40:12.014Z,100077.90
2018-11-28T15:42:41.499Z,100071.03
2018-11-28T15:45:15.722Z,100071.23
2018-11-28T15:47:46.447Z,100072.15
2018-11-28T15:50:16.744Z,100066.09
2018-11-28T15:52:47.680Z,100067.29
2018-11-28T15:55:19.085Z,100074.93
2018-11-28T15:57:49.733Z,100077.32
2018-11-28T16:00:22.445Z,100080.23
2018-11-28T16:02:52.790Z,100076.31
2018-11-28T16:05:22.403Z,100075.19
2018-11-28T16:07:53.922Z,100072.06
2018-11-28T16:10:30.102Z,100070.64
2018-11-28T16:13:01.561Z,100068.73
2018-11-28T16:15:34.896Z,100082.88
2018-11-28T16:18:05.807Z,100079.77
2018-11-28T16:20:36.649Z,100083.20
2018-11-28T16:23:12.075Z,100085.49
2018-11-28T16:25:44.147Z,100078.84
2018-11-28T16:28:14.447Z,100082.88
2018-11-28T16:30:54.952Z,100080.84
2018-11-28T16:33:30.187Z,100081.14
2018-11-28T16:36:01.152Z,100072.38
2018-11-28T16:38:31.020Z,100069.88
2018-11-28T16:41:02.761Z,100069.97
2018-11-28T16:43:33.105Z,100074.50
2018-11-28T16:46:03.347Z,100069.94
2018-11-28T16:48:34.468Z,100074.36
2018-11-28T16:51:04.921Z,100066.80
2018-11-28T16:53:36.169Z,100062.22
2018-11-28T16:56:06.856Z,100068.69
2018-11-28T16:58:38.247Z,100072.81
2018-11-28T17:01:07.907Z,100079.27
2018-11-28T17:03:37.532Z,100078.66
2018-11-28T17:06:11.717Z,100080.66
2018-11-28T17:08:41.049Z,100085.36
2018-11-28T17:11:11.441Z,100084.87
2018-11-28T17:13:41.148Z,100084.34
2018-11-28T17:16:14.173Z,100075.63
2018-11-28T17:18:46.587Z,100084.63
2018-11-28T17:21:17.578Z,100092.55
2018-11-28T17:23:49.050Z,100097.95
2018-11-28T17:26:19.893Z,100093.86
2018-11-28T17:28:50.016Z,100069.31
2018-11-28T17:31:23.316Z,100098.03
2018-11-28T17:33:52.945Z,100097.92
2018-11-28T17:36:23.572Z,100094.49
2018-11-28T17:38:53.298Z,100104.94
2018-11-28T17:41:29.893Z,100094.20
2018-11-28T17:45:30.838Z,100097.56
2018-11-28T17:48:02.374Z,100092.73
2018-11-28T17:50:32.481Z,100089.19
2018-11-28T17:53:09.081Z,100086.38
2018-11-28T17:55:47.489Z,100086.46
2018-11-28T17:58:21.254Z,100080.74
2018-11-28T18:00:59.464Z,100087.39
2018-11-28T18:03:43.066Z,100080.83
2018-11-28T18:06:41.557Z,100074.30
2018-11-28T18:09:13.775Z,100071.81
2018-11-28T18:11:43.302Z,100079.66
2018-11-28T18:14:14.128Z,100039.06
2018-11-28T18:16:45.098Z,100075.73
2018-11-28T18:19:22.778Z,100075.32
2018-11-28T18:21:53.631Z,100072.59
2018-11-28T18:24:23.777Z,100076.14
2018-11-28T18:26:53.891Z,100071.20
2018-11-28T18:29:25.830Z,100074.59
2018-11-28T18:31:55.891Z,100071.56
2018-11-28T18:34:27.289Z,100091.19
2018-11-28T18:36:58.969Z,100086.09
2018-11-28T18:39:29.532Z,100079.27
2018-11-28T18:41:59.551Z,100081.07
2018-11-28T18:44:36.421Z,100080.63
2018-11-28T18:47:08.811Z,100079.03
2018-11-28T18:49:38.456Z,100081.02
2018-11-28T18:52:07.965Z,100084.53
2018-11-28T18:54:38.012Z,100083.48
2018-11-28T18:57:08.857Z,100074.09
2018-11-28T18:59:38.355Z,100067.45
2018-11-28T19:02:08.028Z,100066.95
2018-11-28T19:04:38.314Z,100068.47
2018-11-28T19:07:07.650Z,100062.88
2018-11-28T19:09:42.973Z,100067.03
2018-11-28T19:12:12.734Z,100066.34
2018-11-28T19:14:42.411Z,100069.69
2018-11-28T19:17:11.962Z,100073.84
2018-11-28T19:19:43.781Z,100075.88
2018-11-28T19:22:14.495Z,100074.17
2018-11-28T19:24:50.654Z,100078.70
2018-11-28T19:27:20.989Z,100075.42
2018-11-28T19:29:51.289Z,100078.20
2018-11-28T19:32:21.543Z,100077.05
2018-11-28T19:34:51.551Z,100081.09
2018-11-28T19:37:21.191Z,100081.06
2018-11-28T19:39:51.374Z,100070.38
2018-11-28T19:45:43.741Z,100070.73
2018-11-28T19:48:13.185Z,100065.59
2018-11-28T19:50:43.826Z,100070.48
2018-11-28T19:53:13.847Z,100075.10
2018-11-28T19:55:43.637Z,100084.39
2018-11-28T19:58:13.525Z,100081.37
2018-11-28T20:00:46.273Z,100080.83
2018-11-28T20:03:15.531Z,100091.30
2018-11-28T20:05:45.529Z,100083.47
2018-11-28T20:08:15.132Z,100088.69
2018-11-28T20:10:44.428Z,100084.39
2018-11-28T20:13:13.799Z,100079.17
2018-11-28T20:15:44.998Z,100089.50
2018-11-28T20:18:14.374Z,100083.06
2018-11-28T20:20:44.694Z,100083.78
2018-11-28T20:23:14.103Z,100095.51
2018-11-28T20:25:44.189Z,100074.64
2018-11-28T20:28:13.599Z,100077.75
2018-11-28T20:30:44.534Z,100072.03
2018-11-28T20:33:16.118Z,100074.03
2018-11-28T20:35:46.802Z,100064.08
2018-11-28T20:38:19.556Z,100063.96
2018-11-28T20:40:48.933Z,100062.94
2018-11-28T20:43:18.529Z,100072.23
2018-11-28T20:45:47.877Z,100072.38
2018-11-28T20:48:17.286Z,100075.52
2018-11-28T20:50:46.657Z,100071.27
2018-11-28T20:53:17.671Z,100070.57
2018-11-28T20:55:47.963Z,100060.47
2018-11-28T20:58:17.301Z,100071.23
2018-11-28T21:00:46.795Z,100065.48
2018-11-28T21:03:16.586Z,100071.35
2018-11-28T21:05:45.945Z,100068.45
2018-11-28T21:08:15.349Z,100077.36
2018-11-28T21:10:44.792Z,100063.31
2018-11-28T21:13:14.802Z,100059.40
2018-11-28T21:15:46.149Z,100063.69
2018-11-28T21:18:18.903Z,100066.86
2018-11-28T21:20:48.584Z,100056.41
2018-11-28T21:23:19.389Z,100053.85
2018-11-28T21:25:49.290Z,100052.05
2018-11-28T21:28:18.730Z,100048.95
2018-11-28T21:30:51.251Z,100066.18
2018-11-28T21:33:21.561Z,100056.87
2018-11-28T21:35:52.355Z,100065.23
2018-11-28T21:38:21.797Z,99910.73
2018-11-28T21:40:51.141Z,100053.65
2018-11-28T21:43:20.853Z,100053.81
2018-11-28T21:45:50.306Z,100043.25
2018-11-28T21:48:20.397Z,100048.80
2018-11-28T21:50:49.729Z,100044.42
2018-11-28T21:53:19.066Z,100047.13
2018-11-28T21:55:48.368Z,100044.93
2018-11-28T21:58:17.987Z,100038.44
2018-11-28T22:00:47.362Z,100036.23
2018-11-28T22:03:16.746Z,100033.42
2018-11-28T22:05:47.102Z,100033.05
2018-11-28T22:08:16.446Z,100043.77
2018-11-28T22:19:56.166Z,100045.17
2018-11-28T22:22:25.699Z,100032.44
2018-11-28T22:24:54.973Z,100031.25
2018-11-28T22:27:24.434Z,100037.08
2018-11-28T22:29:53.905Z,100030.89
2018-11-28T22:32:23.143Z,100023.17
2018-11-28T22:34:52.617Z,100031.02
2018-11-28T22:37:21.939Z,100024.36
2018-11-28T22:39:51.309Z,100020.28
2018-11-28T22:42:20.888Z,100026.48
2018-11-28T22:44:50.189Z,100023.26
2018-11-28T22:47:19.646Z,100014.03
2018-11-28T22:49:49.608Z,100000.25
2018-11-28T22:52:24.494Z,99999.76
2018-11-28T22:54:53.801Z,100008.98
2018-11-28T22:57:23.214Z,99997.39
2018-11-28T22:59:53.394Z,100006.58
2018-11-28T23:02:49.805Z,99996.77
2018-11-28T23:05:19.380Z,100012.29
2018-11-28T23:07:48.943Z,100006.78
2018-11-28T23:10:18.345Z,100000.59
2018-11-28T23:12:47.623Z,100005.12
2018-11-28T23:15:16.974Z,100001.49
2018-11-28T23:17:46.441Z,99998.30
2018-11-28T23:20:17.190Z,100001.08
2018-11-28T23:22:46.533Z,100003.37
2018-11-28T23:25:15.947Z,99987.97
2018-11-28T23:27:45.638Z,99983.02
2018-11-28T23:30:17.869Z,99989.67
2018-11-28T23:32:47.928Z,99993.05
2018-11-28T23:35:17.527Z,99998.27
2018-11-28T23:37:47.975Z,99991.38
2018-11-28T23:40:23.293Z,99977.80
2018-11-28T23:42:53.417Z,99972.54
2018-11-28T23:45:22.966Z,99968.74
2018-11-28T23:47:52.301Z,99976.78
2018-11-28T23:50:25.564Z,99977.27
2018-11-28T23:52:55.806Z,99981.67
2018-11-28T23:55:28.377Z,99972.38
2018-11-28T23:57:58.483Z,99973.55
